Time;durP1;ratioP1;P1;durP2;ratioP2;P2;SDS_P1;SDS_P2;PMS_P1;PMS_P2;Temp;Humidity;BMP_temperature;BMP_pressure;BME280_temperature;BME280_humidity;BME280_pressure;Samples;Min_cycle;Max_cycle;Signal;HPM_P1;HPM_P2
2022/01/26 00:05:55;;;;;;;64.82;43.28;;;23.50;80.90;;;;;;1894282;73;22026;-84
2022/01/26 00:08:26;;;;;;;58.30;38.58;;;23.50;80.70;;;;;;1975443;71;21676;-83
2022/01/26 00:10:56;;;;;;;58.20;37.60;;;23.50;80.70;;;;;;1957367;72;21137;-83
2022/01/26 00:13:27;;;;;;;56.13;36.48;;;23.50;80.50;;;;;;1960446;72;21208;-84
2022/01/26 00:16:01;;;;;;;52.00;35.35;;;23.60;80.40;;;;;;1896903;74;21604;-83
2022/01/26 00:18:34;;;;;;;47.85;35.17;;;23.60;80.20;;;;;;1923706;73;21156;-84
2022/01/26 00:21:13;;;;;;;52.25;35.52;;;23.60;79.80;;;;;;1971140;72;21140;-84
2022/01/26 00:26:12;;;;;;;53.60;36.20;;;23.70;80.90;;;;;;1958496;72;21071;-84
2022/01/26 00:38:48;;;;;;;59.75;37.55;;;23.70;81.30;;;;;;1950875;72;21144;-85
2022/01/26 00:41:30;;;;;;;58.83;38.30;;;23.70;81.80;;;;;;1942069;72;21090;-85
2022/01/26 00:43:56;;;;;;;58.70;36.98;;;23.60;82.10;;;;;;1914951;74;21100;-85
2022/01/26 00:46:26;;;;;;;56.65;39.53;;;23.50;82.30;;;;;;1940452;72;21162;-85
2022/01/26 00:48:57;;;;;;;56.92;38.33;;;23.50;82.10;;;;;;1957960;72;21209;-85
2022/01/26 00:51:27;;;;;;;55.73;36.68;;;23.60;82.50;;;;;;1936189;72;21237;-85
2022/01/26 00:54:06;;;;;;;55.08;37.90;;;23.60;82.40;;;;;;1940448;72;21165;-85
2022/01/26 00:56:30;;;;;;;54.00;36.88;;;23.60;81.50;;;;;;1962432;72;21177;-85
2022/01/26 00:59:02;;;;;;;51.55;36.35;;;23.70;81.30;;;;;;1946764;72;21224;-85
2022/01/26 01:01:33;;;;;;;53.02;35.45;;;23.70;80.80;;;;;;1945737;72;21214;-85
2022/01/26 01:04:04;;;;;;;51.40;34.53;;;23.80;80.20;;;;;;1967283;72;21204;-86
2022/01/26 01:06:39;;;;;;;45.63;33.75;;;23.90;79.40;;;;;;1963241;72;21131;-85
2022/01/26 01:09:07;;;;;;;45.35;33.18;;;24.00;78.10;;;;;;1964864;72;21185;-85
2022/01/26 01:11:38;;;;;;;49.15;34.30;;;24.00;77.40;;;;;;1950294;73;21907;-85
2022/01/26 01:14:11;;;;;;;51.90;34.92;;;24.10;77.10;;;;;;1954177;73;21142;-84
2022/01/26 01:16:41;;;;;;;52.73;34.40;;;24.20;77.30;;;;;;1948707;72;21181;-84
2022/01/26 01:19:29;;;;;;;46.80;33.38;;;24.30;77.20;;;;;;1946435;73;21079;-85
2022/01/26 01:29:26;;;;;;;46.83;33.63;;;24.50;75.10;;;;;;1958695;72;21170;-72
2022/01/26 01:31:55;;;;;;;47.90;33.23;;;24.60;74.30;;;;;;1949293;72;21728;-72
2022/01/26 01:34:34;;;;;;;46.23;32.00;;;24.60;74.20;;;;;;1972676;72;21123;-72
2022/01/26 01:37:04;;;;;;;43.38;30.72;;;24.70;72.60;;;;;;1952809;72;21143;-73
2022/01/26 01:39:31;;;;;;;42.75;30.02;;;24.70;71.60;;;;;;1917073;73;21131;-73
2022/01/26 01:42:04;;;;;;;82.17;34.53;;;24.80;71.40;;;;;;1941025;72;21196;-73
2022/01/26 01:44:35;;;;;;;43.60;30.75;;;24.90;71.10;;;;;;1942895;72;21161;-74
2022/01/26 01:47:07;;;;;;;40.12;27.27;;;24.90;70.90;;;;;;1950198;72;21073;-73
2022/01/26 01:49:38;;;;;;;44.38;29.05;;;25.00;70.00;;;;;;1956429;72;21179;-71
2022/01/26 01:52:14;;;;;;;38.15;28.92;;;25.00;70.10;;;;;;1957755;72;21678;-72
2022/01/26 01:54:48;;;;;;;44.88;32.78;;;25.10;68.50;;;;;;1953520;72;21119;-72
2022/01/26 01:57:20;;;;;;;43.58;30.95;;;25.10;66.20;;;;;;1951899;72;21112;-72
2022/01/26 01:59:45;;;;;;;45.80;30.68;;;25.20;66.80;;;;;;1958379;72;21127;-72
2022/01/26 02:02:16;;;;;;;38.30;29.27;;;25.30;66.30;;;;;;1961788;71;21241;-72
2022/01/26 02:04:47;;;;;;;38.10;29.12;;;25.30;68.10;;;;;;1956047;72;21138;-72
2022/01/26 02:07:18;;;;;;;41.50;29.25;;;25.40;67.00;;;;;;1961984;72;21106;-72
2022/01/26 02:09:49;;;;;;;42.25;30.48;;;25.40;67.00;;;;;;1952670;72;21193;-72
2022/01/26 02:12:23;;;;;;;42.67;29.57;;;25.50;67.30;;;;;;1944939;72;21079;-72
2022/01/26 02:15:07;;;;;;;42.48;28.23;;;25.60;67.70;;;;;;1956532;72;21616;-73
2022/01/26 02:17:45;;;;;;;35.63;25.48;;;25.60;67.80;;;;;;1948801;72;21536;-72
2022/01/26 02:20:23;;;;;;;34.67;24.80;;;25.70;67.90;;;;;;1949281;72;21587;-71
2022/01/26 03:05:49;;;;;;;28.05;19.75;;;26.60;67.90;;;;;;1953006;72;21650;-73
2022/01/26 03:08:12;;;;;;;26.52;21.20;;;26.70;68.10;;;;;;1961534;71;21423;-72
2022/01/26 03:10:50;;;;;;;23.60;19.67;;;26.70;68.20;;;;;;1966210;72;21116;-74
2022/01/26 03:13:21;;;;;;;27.65;19.62;;;26.70;67.50;;;;;;1963766;72;21084;-73
2022/01/26 03:15:54;;;;;;;26.65;19.62;;;26.80;67.60;;;;;;1961762;72;21036;-73
2022/01/26 03:20:54;;;;;;;26.17;19.17;;;26.90;67.60;;;;;;1961009;72;21213;-73
2022/01/26 03:31:34;;;;;;;25.62;17.50;;;27.20;66.30;;;;;;1968397;72;21080;-73
2022/01/26 03:33:52;;;;;;;28.85;17.77;;;27.30;64.90;;;;;;1950263;72;21873;-73
2022/01/26 03:36:11;;;;;;;30.43;19.32;;;27.40;64.90;;;;;;1940677;72;21108;-73
2022/01/26 03:38:44;;;;;;;24.07;17.40;;;27.50;64.40;;;;;;1970112;72;21102;-73
2022/01/26 03:43:40;;;;;;;26.55;18.92;;;27.70;64.80;;;;;;1953099;72;21065;-73
2022/01/26 03:46:11;;;;;;;30.27;18.05;;;27.70;65.30;;;;;;1948992;72;21204;-74
2022/01/26 03:48:42;;;;;;;31.87;19.90;;;27.80;64.20;;;;;;1959119;71;21150;-74
2022/01/26 03:51:13;;;;;;;27.73;19.20;;;27.90;65.50;;;;;;1957898;71;21076;-73
2022/01/26 03:53:43;;;;;;;27.20;20.08;;;28.00;65.60;;;;;;1959465;72;22297;-73
2022/01/26 03:56:14;;;;;;;27.30;19.85;;;28.10;65.00;;;;;;1954277;71;21220;-73
2022/01/26 03:58:45;;;;;;;21.97;16.87;;;28.20;64.50;;;;;;1942935;72;21643;-73
2022/01/26 04:03:59;;;;;;;20.10;16.20;;;28.40;62.50;;;;;;2024363;70;21081;-73
2022/01/26 04:06:31;;;;;;;26.90;16.82;;;28.50;62.20;;;;;;2021551;69;21169;-72
2022/01/26 04:09:05;;;;;;;20.37;14.65;;;28.60;61.40;;;;;;2011847;70;21194;-73
2022/01/26 04:11:43;;;;;;;19.48;14.60;;;28.70;61.60;;;;;;2009693;69;21476;-73
2022/01/26 04:14:13;;;;;;;21.42;15.68;;;28.80;61.10;;;;;;2004793;70;21108;-73
2022/01/26 04:16:45;;;;;;;19.60;14.15;;;28.80;60.60;;;;;;2014378;70;21177;-73
2022/01/26 04:19:17;;;;;;;19.80;14.65;;;28.90;59.20;;;;;;2033251;69;21202;-73
2022/01/26 04:24:33;;;;;;;19.10;14.05;;;29.20;59.30;;;;;;2031500;69;21128;-72
2022/01/26 04:26:59;;;;;;;19.35;13.38;;;29.30;57.10;;;;;;2026079;69;21552;-73
2022/01/26 04:29:28;;;;;;;20.48;14.63;;;29.40;57.40;;;;;;2007800;70;21166;-74
2022/01/26 04:31:57;;;;;;;18.98;14.20;;;29.50;56.90;;;;;;2014174;70;21173;-74
2022/01/26 04:34:29;;;;;;;17.65;13.40;;;29.50;58.00;;;;;;2014433;70;22289;-83
2022/01/26 04:39:46;;;;;;;16.80;13.20;;;29.60;57.20;;;;;;2004123;70;21140;-83
2022/01/26 04:42:26;;;;;;;17.98;14.58;;;29.60;56.80;;;;;;1928501;71;21563;-83
2022/01/26 04:44:43;;;;;;;18.10;13.25;;;29.70;56.10;;;;;;2021286;69;21061;-82
2022/01/26 04:47:08;;;;;;;20.05;13.25;;;29.80;56.50;;;;;;2017567;69;21185;-82
2022/01/26 04:49:39;;;;;;;22.40;14.40;;;29.90;56.10;;;;;;2000679;70;21112;-82
2022/01/26 04:52:10;;;;;;;19.17;15.00;;;30.00;57.50;;;;;;2002787;70;21088;-82
2022/01/26 04:54:41;;;;;;;16.10;12.65;;;30.00;57.20;;;;;;2007273;70;21665;-82
2022/01/26 04:57:11;;;;;;;19.07;13.62;;;30.20;55.50;;;;;;2013304;70;21764;-82
2022/01/26 04:59:42;;;;;;;17.75;12.75;;;30.20;53.60;;;;;;2017533;70;21059;-85
2022/01/26 05:02:12;;;;;;;17.87;12.53;;;30.50;52.40;;;;;;2019743;70;21569;-85
2022/01/26 05:04:44;;;;;;;20.97;14.18;;;30.50;53.00;;;;;;2010287;69;21186;-86
2022/01/26 05:07:14;;;;;;;20.10;14.45;;;30.60;55.40;;;;;;2010226;69;21071;-85
2022/01/26 05:09:45;;;;;;;15.70;12.85;;;30.70;55.60;;;;;;2048214;68;21189;-84
2022/01/26 05:12:17;;;;;;;20.48;13.78;;;30.80;54.50;;;;;;2041881;69;21171;-86
2022/01/26 05:14:49;;;;;;;17.10;13.72;;;30.80;53.90;;;;;;2016648;69;21076;-82
2022/01/26 05:17:22;;;;;;;17.87;14.18;;;30.80;53.40;;;;;;2032583;69;21072;-82
2022/01/26 05:19:56;;;;;;;20.12;13.48;;;30.90;53.30;;;;;;2026482;69;21161;-75
2022/01/26 05:22:24;;;;;;;18.90;13.43;;;31.00;52.50;;;;;;2023306;69;21190;-73
2022/01/26 05:24:54;;;;;;;16.55;13.18;;;31.10;53.30;;;;;;1936991;72;21572;-73
2022/01/26 05:27:26;;;;;;;17.10;13.53;;;31.10;53.30;;;;;;2011549;70;21206;-73
2022/01/26 05:29:57;;;;;;;18.12;13.28;;;31.10;52.10;;;;;;2002276;69;21228;-74
2022/01/26 05:32:28;;;;;;;18.15;13.70;;;31.10;50.80;;;;;;2010769;70;21540;-73
2022/01/26 05:34:58;;;;;;;23.85;16.20;;;31.10;51.20;;;;;;2010767;70;21202;-74
2022/01/26 05:37:29;;;;;;;17.98;12.35;;;31.10;51.80;;;;;;2009181;69;21500;-74
2022/01/26 05:40:02;;;;;;;17.02;12.35;;;31.20;52.90;;;;;;2018395;70;21077;-73
2022/01/26 05:42:34;;;;;;;19.07;13.53;;;31.20;51.80;;;;;;2020376;69;21080;-73
2022/01/26 05:45:15;;;;;;;20.55;13.13;;;31.10;52.80;;;;;;1998888;70;21213;-73
2022/01/26 05:47:38;;;;;;;16.05;12.28;;;31.20;52.30;;;;;;2034149;69;21190;-73
2022/01/26 05:50:09;;;;;;;16.42;12.50;;;31.20;51.60;;;;;;2006021;69;21579;-74
2022/01/26 05:52:40;;;;;;;16.32;13.00;;;31.30;51.50;;;;;;2022374;70;21085;-73
2022/01/26 05:55:11;;;;;;;19.27;12.98;;;31.40;52.20;;;;;;2027995;69;21138;-73
2022/01/26 05:57:41;;;;;;;16.23;11.93;;;31.40;51.30;;;;;;2016771;70;21150;-74
2022/01/26 06:00:13;;;;;;;17.62;12.37;;;31.40;50.50;;;;;;2020887;69;21161;-74
2022/01/26 06:02:44;;;;;;;17.57;13.03;;;31.50;51.80;;;;;;2013995;70;21616;-73
2022/01/26 06:05:15;;;;;;;21.77;13.35;;;31.50;50.00;;;;;;2019712;69;21053;-73
2022/01/26 06:07:45;;;;;;;17.77;12.88;;;;;;;;;;2007396;69;21120;-74
2022/01/26 06:10:16;;;;;;;14.93;11.48;;;31.70;49.30;;;;;;2018657;70;21107;-74
2022/01/26 06:12:47;;;;;;;16.45;11.90;;;31.80;49.70;;;;;;2022409;70;21503;-74
2022/01/26 06:15:19;;;;;;;15.32;11.68;;;31.80;49.20;;;;;;2019523;69;21085;-74
2022/01/26 06:17:50;;;;;;;16.27;11.97;;;31.80;50.10;;;;;;1965730;72;21100;-74
2022/01/26 06:20:21;;;;;;;15.70;11.97;;;31.70;49.60;;;;;;1922366;72;21619;-74
2022/01/26 06:22:52;;;;;;;14.13;12.15;;;31.70;50.50;;;;;;1907218;74;21155;-74
2022/01/26 06:25:23;;;;;;;16.12;11.25;;;31.70;49.20;;;;;;2004634;70;21105;-74
2022/01/26 06:27:55;;;;;;;15.25;11.93;;;31.70;48.30;;;;;;2011826;69;21111;-74
2022/01/26 06:30:26;;;;;;;15.23;11.10;;;31.70;48.50;;;;;;2024089;70;21546;-74
2022/01/26 06:32:57;;;;;;;14.18;10.93;;;31.70;49.20;;;;;;2003739;70;21166;-73
2022/01/26 06:35:29;;;;;;;13.88;10.15;;;31.80;48.30;;;;;;2004703;70;21132;-72
2022/01/26 06:38:00;;;;;;;13.88;10.78;;;31.80;48.20;;;;;;2004615;70;21557;-73
2022/01/26 06:40:30;;;;;;;16.45;12.07;;;31.80;47.20;;;;;;2016676;69;21115;-72
2022/01/26 06:43:10;;;;;;;15.32;10.82;;;31.80;48.60;;;;;;2021506;70;21133;-73
2022/01/26 06:45:38;;;;;;;13.80;10.23;;;31.80;49.00;;;;;;2019941;69;21163;-72
2022/01/26 06:50:38;;;;;;;22.05;16.12;;;31.70;46.80;;;;;;2019291;69;21626;-72
2022/01/26 06:53:09;;;;;;;16.82;11.45;;;31.70;46.50;;;;;;2006867;70;21108;-73
2022/01/26 06:55:40;;;;;;;12.85;10.20;;;31.80;46.10;;;;;;2014617;69;21231;-73
2022/01/26 06:58:11;;;;;;;14.18;10.93;;;31.90;46.10;;;;;;2013745;70;21685;-73
2022/01/26 07:00:42;;;;;;;14.70;10.35;;;32.00;46.40;;;;;;2010226;70;21059;-72
2022/01/26 07:03:13;;;;;;;16.75;11.85;;;32.00;46.80;;;;;;2012078;69;21248;-73
2022/01/26 07:05:45;;;;;;;15.70;11.25;;;32.00;47.40;;;;;;2014012;69;21461;-72
2022/01/26 07:08:15;;;;;;;13.65;11.00;;;32.00;47.00;;;;;;1955663;71;21236;-72
2022/01/26 07:10:48;;;;;;;15.03;10.90;;;32.00;47.10;;;;;;2013814;70;21110;-72
2022/01/26 07:13:18;;;;;;;11.93;9.98;;;32.00;45.80;;;;;;2029097;69;21103;-72
2022/01/26 07:21:23;;;;;;;12.95;10.30;;;32.20;46.70;;;;;;2018050;69;21092;-72
2022/01/26 07:23:25;;;;;;;16.80;10.90;;;32.20;45.90;;;;;;2011869;70;21177;-72
2022/01/26 07:25:56;;;;;;;13.35;10.40;;;32.10;46.00;;;;;;2020531;69;21096;-72
2022/01/26 07:28:29;;;;;;;11.83;9.73;;;32.10;44.80;;;;;;2014270;69;21091;-73
2022/01/26 07:30:58;;;;;;;12.70;10.60;;;32.10;45.50;;;;;;2014380;70;21125;-74
2022/01/26 07:33:29;;;;;;;11.53;9.38;;;32.10;44.30;;;;;;2021999;69;21101;-73
2022/01/26 07:36:01;;;;;;;12.88;9.95;;;32.10;44.40;;;;;;1966277;71;21660;-73
2022/01/26 07:38:32;;;;;;;15.23;10.20;;;32.20;44.40;;;;;;1969015;72;21767;-74
2022/01/26 07:41:04;;;;;;;14.30;10.00;;;32.20;44.70;;;;;;1930538;73;21201;-73
2022/01/26 07:43:34;;;;;;;15.00;10.15;;;32.20;44.10;;;;;;1929360;72;21096;-73
2022/01/26 07:46:06;;;;;;;13.08;9.80;;;32.20;44.40;;;;;;2023720;69;21197;-75
2022/01/26 07:48:38;;;;;;;12.58;9.90;;;32.20;45.00;;;;;;1976429;71;21120;-74
2022/01/26 07:51:08;;;;;;;15.48;10.03;;;32.20;44.80;;;;;;2005358;71;21034;-74
2022/01/26 07:53:39;;;;;;;13.58;9.15;;;32.00;44.70;;;;;;2018820;69;21159;-74
2022/01/26 07:56:10;;;;;;;11.83;9.10;;;32.00;45.00;;;;;;2019223;69;21088;-74
2022/01/26 07:58:42;;;;;;;12.88;10.48;;;31.80;44.40;;;;;;1923881;72;21103;-73
2022/01/26 08:01:12;;;;;;;15.15;10.30;;;31.80;44.10;;;;;;2003007;70;21213;-74
2022/01/26 08:03:44;;;;;;;13.10;10.48;;;31.80;44.30;;;;;;2020840;69;21085;-74
2022/01/26 08:06:15;;;;;;;11.33;9.23;;;31.80;45.40;;;;;;2019204;70;21143;-72
2022/01/26 08:08:46;;;;;;;13.93;9.88;;;31.80;46.20;;;;;;2017083;69;21213;-73
2022/01/26 08:11:16;;;;;;;14.60;10.20;;;31.70;46.60;;;;;;2013296;69;21138;-73
2022/01/26 08:13:47;;;;;;;12.03;9.28;;;31.70;46.60;;;;;;2010919;69;21065;-75
2022/01/26 08:16:18;;;;;;;12.18;9.33;;;31.60;46.50;;;;;;2002511;70;21153;-74
2022/01/26 08:18:49;;;;;;;12.53;8.95;;;31.40;46.40;;;;;;2007889;70;21153;-74
2022/01/26 08:21:20;;;;;;;12.98;9.25;;;31.40;46.40;;;;;;2004899;70;21683;-75
2022/01/26 08:23:51;;;;;;;13.70;9.10;;;31.20;46.80;;;;;;2020519;69;21094;-75
2022/01/26 08:26:31;;;;;;;11.78;8.43;;;31.20;46.60;;;;;;2014074;70;21140;-76
2022/01/26 08:28:56;;;;;;;13.70;9.33;;;31.20;46.40;;;;;;2021233;69;21106;-75
2022/01/26 08:31:28;;;;;;;10.45;8.30;;;31.20;45.60;;;;;;2030887;69;21053;-75
2022/01/26 08:33:58;;;;;;;12.50;9.40;;;31.20;45.60;;;;;;2027291;69;21122;-74
2022/01/26 08:36:29;;;;;;;13.15;8.80;;;31.20;45.80;;;;;;2004847;70;21108;-75
2022/01/26 08:39:00;;;;;;;12.33;9.63;;;31.20;46.10;;;;;;2003480;71;21128;-75
2022/01/26 08:41:31;;;;;;;14.28;8.93;;;31.30;46.20;;;;;;2003268;71;21190;-74
2022/01/26 08:44:02;;;;;;;12.25;8.65;;;31.30;45.50;;;;;;2011686;70;21124;-74
2022/01/26 08:46:33;;;;;;;11.65;9.50;;;31.30;45.50;;;;;;2006884;70;21161;-74
2022/01/26 08:49:06;;;;;;;13.10;9.08;;;31.30;45.50;;;;;;2016380;70;21590;-74
2022/01/26 08:51:37;;;;;;;11.25;9.65;;;31.30;46.00;;;;;;2011398;69;21110;-73
2022/01/26 08:54:10;;;;;;;14.07;9.40;;;31.40;46.40;;;;;;2020246;70;21096;-73
2022/01/26 08:56:42;;;;;;;12.23;8.85;;;31.40;46.20;;;;;;2024475;69;21190;-73
2022/01/26 08:59:12;;;;;;;11.38;8.80;;;31.30;46.20;;;;;;2011297;69;21610;-73
2022/01/26 09:01:44;;;;;;;12.82;9.35;;;31.30;45.70;;;;;;2023381;70;21013;-74
2022/01/26 09:04:16;;;;;;;13.10;8.58;;;31.30;44.50;;;;;;1982539;71;21132;-72
2022/01/26 09:06:56;;;;;;;11.65;9.80;;;31.30;45.20;;;;;;1962276;71;21182;-72
2022/01/26 09:09:20;;;;;;;11.12;8.95;;;31.30;45.70;;;;;;2016561;70;21033;-74
2022/01/26 09:11:54;;;;;;;11.30;9.70;;;31.40;46.00;;;;;;2032315;69;21073;-75
2022/01/26 09:14:27;;;;;;;13.60;9.05;;;31.30;46.20;;;;;;2021670;69;21118;-74
2022/01/26 09:16:56;;;;;;;10.82;9.08;;;31.30;46.20;;;;;;2015737;70;21112;-73
2022/01/26 09:19:29;;;;;;;13.00;9.28;;;31.30;46.80;;;;;;2001941;70;21121;-73
2022/01/26 09:22:02;;;;;;;15.48;9.95;;;31.20;46.60;;;;;;2007135;69;21147;-74
2022/01/26 09:24:35;;;;;;;11.38;9.20;;;31.20;46.20;;;;;;1956586;71;21143;-75
2022/01/26 09:27:07;;;;;;;10.63;8.33;;;31.20;45.80;;;;;;1960737;71;21160;-73
2022/01/26 09:29:38;;;;;;;12.15;8.95;;;31.20;45.20;;;;;;1961903;72;21686;-74
2022/01/26 09:32:11;;;;;;;13.40;9.80;;;31.20;45.00;;;;;;2009057;70;21033;-74
2022/01/26 09:34:43;;;;;;;11.53;9.00;;;31.20;45.60;;;;;;2021348;69;21457;-73
2022/01/26 09:37:16;;;;;;;14.20;9.88;;;31.10;45.90;;;;;;2030930;70;21123;-75
2022/01/26 09:39:49;;;;;;;10.88;8.95;;;31.10;45.70;;;;;;1978889;71;21573;-75
2022/01/26 09:42:20;;;;;;;11.55;9.30;;;31.00;45.90;;;;;;1965703;72;21126;-76
2022/01/26 09:44:51;;;;;;;12.80;8.90;;;30.90;45.90;;;;;;2004997;70;21184;-74
2022/01/26 09:47:25;;;;;;;12.85;9.40;;;30.90;46.40;;;;;;2012803;70;21200;-74
2022/01/26 09:49:55;;;;;;;11.30;8.73;;;30.80;46.30;;;;;;2021486;69;21154;-73
2022/01/26 09:52:35;;;;;;;12.75;8.95;;;30.80;46.40;;;;;;2031059;69;21601;-75
2022/01/26 09:55:08;;;;;;;10.50;8.78;;;30.70;46.60;;;;;;1968106;71;21091;-75
2022/01/26 09:57:36;;;;;;;;;;;30.70;46.60;;;;;;2045801;69;21178;-84
2022/01/26 10:00:11;;;;;;;12.88;9.18;;;30.60;47.10;;;;;;2027736;70;20097;-85
2022/01/26 10:02:48;;;;;;;15.50;10.35;;;30.60;46.70;;;;;;2021934;69;21085;-84
2022/01/26 10:05:24;;;;;;;10.72;8.98;;;30.60;47.20;;;;;;2025959;69;21640;-91
2022/01/26 10:08:13;;;;;;;13.65;10.00;;;30.60;47.20;;;;;;2009935;69;21127;-86
2022/01/26 10:15:44;;;;;;;16.20;9.43;;;30.50;47.60;;;;;;2002089;71;21619;-85
2022/01/26 10:18:15;;;;;;;11.10;8.88;;;30.40;47.50;;;;;;2004966;71;21564;-86
2022/01/26 10:20:47;;;;;;;10.82;8.93;;;30.40;47.50;;;;;;2023519;70;21116;-85
2022/01/26 10:23:24;;;;;;;14.43;9.00;;;30.40;47.50;;;;;;2032334;69;21034;-86
2022/01/26 10:25:57;;;;;;;12.88;9.28;;;30.30;47.80;;;;;;1968947;71;21065;-87
2022/01/26 10:28:33;;;;;;;15.05;10.15;;;30.30;48.00;;;;;;2003641;70;21062;-89
2022/01/26 10:31:16;;;;;;;14.85;10.90;;;30.30;47.90;;;;;;2011677;70;21124;-85
2022/01/26 10:33:46;;;;;;;15.63;10.32;;;30.20;48.00;;;;;;1920397;73;21221;-86
2022/01/26 10:36:18;;;;;;;15.75;10.45;;;30.20;48.10;;;;;;1933851;72;21180;-86
2022/01/26 10:38:56;;;;;;;17.40;11.55;;;30.20;48.20;;;;;;1919990;73;21197;-85
2022/01/26 10:41:24;;;;;;;14.90;10.80;;;30.20;48.30;;;;;;1950282;72;21114;-87
2022/01/26 10:44:00;;;;;;;19.37;12.53;;;30.10;48.40;;;;;;2010198;70;21120;-86
2022/01/26 10:46:35;;;;;;;18.95;14.10;;;30.10;48.60;;;;;;2008920;69;21084;-85
2022/01/26 10:54:27;;;;;;;21.07;13.53;;;30.00;49.10;;;;;;2013842;70;21050;-84
2022/01/26 10:56:54;;;;;;;22.87;14.30;;;30.00;49.30;;;;;;2018486;69;21040;-86
2022/01/26 10:59:27;;;;;;;23.00;14.45;;;29.90;49.50;;;;;;2015241;69;21116;-85
2022/01/26 11:02:02;;;;;;;20.45;14.20;;;29.90;50.50;;;;;;1932892;71;21217;-86
2022/01/26 11:04:38;;;;;;;26.42;13.98;;;29.90;50.00;;;;;;2020554;70;21183;-86
2022/01/26 11:07:12;;;;;;;24.75;18.12;;;29.80;50.10;;;;;;2009624;70;21135;-85
2022/01/26 11:09:45;;;;;;;22.58;17.12;;;29.80;50.50;;;;;;1948554;72;21120;-86
2022/01/26 11:12:18;;;;;;;23.07;15.93;;;29.80;50.60;;;;;;2026603;69;21120;-86
2022/01/26 11:14:54;;;;;;;26.52;14.03;;;29.80;50.90;;;;;;2020027;69;21163;-86
2022/01/26 11:17:27;;;;;;;22.80;13.75;;;29.70;50.70;;;;;;2004024;70;21103;-85
2022/01/26 11:20:02;;;;;;;20.30;12.73;;;29.70;50.80;;;;;;2010412;70;21104;-85
2022/01/26 11:22:34;;;;;;;24.90;13.38;;;29.60;50.90;;;;;;2018590;69;21127;-86
2022/01/26 11:25:08;;;;;;;18.70;12.88;;;29.60;51.00;;;;;;1946968;71;21122;-86
2022/01/26 11:27:42;;;;;;;25.57;13.88;;;29.60;51.10;;;;;;1943871;71;21080;-87
2022/01/26 11:30:16;;;;;;;25.90;13.25;;;29.50;51.40;;;;;;2012184;69;21073;-86
2022/01/26 11:32:50;;;;;;;22.87;14.00;;;29.50;51.60;;;;;;2012950;69;21102;-86
2022/01/26 11:35:23;;;;;;;19.85;13.13;;;29.50;51.90;;;;;;2022523;69;21061;-86
2022/01/26 11:38:02;;;;;;;23.67;14.38;;;29.50;52.00;;;;;;2016566;70;21165;-87
2022/01/26 11:45:41;;;;;;;28.25;17.95;;;29.40;52.40;;;;;;2023633;70;21280;-86
2022/01/26 11:48:12;;;;;;;35.38;21.40;;;29.30;52.40;;;;;;2023712;69;21547;-87
2022/01/26 11:50:51;;;;;;;24.20;15.35;;;29.30;52.60;;;;;;2013834;70;21064;-85
2022/01/26 11:53:30;;;;;;;24.30;16.80;;;29.30;52.80;;;;;;2025592;70;21069;-87
2022/01/26 11:56:07;;;;;;;22.20;15.68;;;29.20;53.00;;;;;;2013869;69;21042;-86
2022/01/26 11:58:45;;;;;;;23.10;15.48;;;29.20;53.20;;;;;;2013428;69;21037;-87
2022/01/26 12:01:22;;;;;;;33.42;17.98;;;29.20;53.30;;;;;;2016287;69;21058;-87
2022/01/26 12:03:54;;;;;;;27.05;15.48;;;29.10;53.20;;;;;;2015499;69;21147;-87
2022/01/26 12:06:26;;;;;;;25.08;15.63;;;29.10;53.40;;;;;;2013259;70;21525;-87
2022/01/26 12:09:00;;;;;;;21.85;15.38;;;29.10;53.70;;;;;;2005636;69;21076;-86
2022/01/26 12:11:30;;;;;;;32.70;21.10;;;29.00;53.90;;;;;;2011078;69;21201;-87
2022/01/26 12:14:07;;;;;;;30.95;20.12;;;29.10;54.20;;;;;;1937312;73;21159;-86
2022/01/26 12:16:46;;;;;;;30.92;19.23;;;29.00;54.30;;;;;;1944568;70;21174;-87
2022/01/26 12:32:16;;;;;;;29.00;18.17;;;28.90;55.50;;;;;;2015776;69;21175;-88
2022/01/26 12:35:18;;;;;;;30.95;17.85;;;28.80;55.40;;;;;;2010661;69;21859;-86
2022/01/26 12:37:41;;;;;;;28.42;17.62;;;28.70;55.60;;;;;;1999722;69;21157;-87
2022/01/26 12:45:24;;;;;;;26.48;18.05;;;28.60;56.30;;;;;;1992966;70;21101;-87
2022/01/26 12:47:53;;;;;;;32.78;18.67;;;28.50;56.40;;;;;;2016838;70;21128;-86
2022/01/26 12:50:30;;;;;;;36.00;22.87;;;28.50;56.70;;;;;;2018441;70;21607;-86
2022/01/26 12:52:58;;;;;;;30.72;18.35;;;28.50;56.80;;;;;;2021313;69;21060;-85
2022/01/26 12:55:32;;;;;;;27.07;18.25;;;28.50;56.60;;;;;;2021600;69;21594;-86
2022/01/26 12:58:09;;;;;;;26.97;17.73;;;28.50;56.80;;;;;;2008752;70;21091;-87
2022/01/26 13:00:45;;;;;;;28.70;18.42;;;28.40;57.10;;;;;;2024614;70;21191;-85
2022/01/26 13:03:19;;;;;;;33.18;20.92;;;28.40;56.70;;;;;;1920723;73;21212;-87
2022/01/26 13:06:09;;;;;;;29.63;20.15;;;28.40;56.70;;;;;;2028811;69;21115;-88
2022/01/26 13:08:42;;;;;;;29.92;19.05;;;28.40;56.60;;;;;;2019812;70;21064;-86
2022/01/26 13:11:16;;;;;;;35.15;19.65;;;28.30;56.90;;;;;;2021687;69;21070;-86
2022/01/26 13:13:57;;;;;;;32.33;19.07;;;28.40;57.20;;;;;;2009447;70;21584;-85
2022/01/26 13:16:27;;;;;;;28.62;19.32;;;28.30;57.20;;;;;;2010863;71;21103;-87
2022/01/26 13:22:01;;;;;;;30.05;19.80;;;28.30;57.50;;;;;;1935532;71;21188;-86
2022/01/26 13:26:49;;;;;;;35.05;19.37;;;28.30;57.30;;;;;;1979301;71;21436;-86
2022/01/26 13:29:26;;;;;;;32.45;22.67;;;28.20;57.60;;;;;;1984085;71;21441;-88
2022/01/26 13:37:06;;;;;;;31.90;19.77;;;28.20;58.00;;;;;;1965840;72;21048;-86
2022/01/26 13:45:07;;;;;;;33.80;20.75;;;28.10;58.10;;;;;;1912495;74;21551;-87
2022/01/26 13:50:05;;;;;;;29.45;19.12;;;28.10;59.00;;;;;;1909876;74;21144;-86
2022/01/26 13:55:24;;;;;;;32.60;21.73;;;28.10;58.80;;;;;;1835414;77;21646;-85
2022/01/26 14:00:08;;;;;;;29.45;21.40;;;28.10;58.90;;;;;;1865991;75;21139;-86
2022/01/26 14:02:38;;;;;;;39.15;23.95;;;28.10;59.20;;;;;;1859521;76;21187;-86
2022/01/26 14:05:10;;;;;;;39.45;22.95;;;28.10;59.90;;;;;;1871566;76;21166;-84
2022/01/26 14:07:41;;;;;;;37.30;25.30;;;28.10;60.50;;;;;;1893481;72;21152;-84
2022/01/26 14:10:11;;;;;;;39.78;26.40;;;28.00;61.50;;;;;;1928623;73;21127;-84
2022/01/26 14:12:48;;;;;;;41.60;26.10;;;28.00;62.20;;;;;;1921604;73;21681;-85
2022/01/26 14:15:27;;;;;;;47.50;26.87;;;28.00;62.20;;;;;;1922408;73;21183;-84
2022/01/26 14:23:17;;;;;;;43.50;26.55;;;27.90;63.80;;;;;;1930070;74;21135;-84
2022/01/26 14:25:31;;;;;;;40.10;25.52;;;27.80;63.70;;;;;;1920976;72;21128;-83
2022/01/26 14:28:07;;;;;;;37.67;25.17;;;27.80;63.40;;;;;;1985286;71;21100;-83
2022/01/26 14:30:47;;;;;;;39.65;26.68;;;27.80;63.00;;;;;;1994985;71;21114;-84
2022/01/26 14:41:05;;;;;;;39.58;25.52;;;27.80;63.30;;;;;;1942040;72;21206;-84
2022/01/26 14:50:58;;;;;;;41.02;25.40;;;27.70;63.20;;;;;;1936712;72;21166;-84
2022/01/26 14:56:01;;;;;;;40.43;27.70;;;27.60;63.30;;;;;;1920374;73;21520;-83
2022/01/26 15:52:06;;;;;;;32.25;22.58;;;27.60;62.50;;;;;;1966827;72;21135;-84
2022/01/26 18:04:27;;;;;;;49.45;31.75;;;25.20;73.80;;;;;;1926214;72;21124;-84
2022/01/26 18:16:57;;;;;;;50.00;31.60;;;25.30;73.20;;;;;;1971139;71;21177;-84
2022/01/26 18:31:46;;;;;;;42.20;29.35;;;25.20;73.10;;;;;;1974557;71;21173;-84
2022/01/26 18:49:43;;;;;;;38.17;28.20;;;24.80;73.80;;;;;;1976855;71;21141;-84
2022/01/26 18:52:14;;;;;;;45.20;28.87;;;24.90;73.70;;;;;;1988626;71;21049;-84
2022/01/26 18:54:44;;;;;;;38.15;27.10;;;24.90;73.60;;;;;;1980780;71;21166;-85
2022/01/26 18:57:15;;;;;;;45.78;29.45;;;24.80;73.50;;;;;;1986950;71;21099;-84
2022/01/26 18:59:46;;;;;;;43.87;30.48;;;24.70;73.50;;;;;;1992606;71;21124;-84
2022/01/26 19:02:17;;;;;;;43.80;29.00;;;24.70;73.20;;;;;;1972427;71;21552;-84
2022/01/26 19:04:49;;;;;;;41.58;29.87;;;24.70;72.80;;;;;;1987673;71;21056;-84
2022/01/26 19:07:20;;;;;;;42.53;29.25;;;24.80;72.80;;;;;;1980069;71;21126;-85
2022/01/26 19:09:51;;;;;;;41.48;29.57;;;24.80;72.70;;;;;;1983297;71;21092;-84
2022/01/26 19:12:25;;;;;;;42.88;29.48;;;24.90;72.60;;;;;;1992895;70;21045;-82
2022/01/26 19:15:00;;;;;;;43.48;29.63;;;24.90;72.80;;;;;;1993905;71;21120;-84
2022/01/26 19:17:52;;;;;;;42.85;29.80;;;24.80;72.90;;;;;;1992101;71;21092;-84
2022/01/26 19:27:47;;;;;;;44.85;30.45;;;24.60;72.70;;;;;;1981199;71;21063;-84
2022/01/26 19:45:46;;;;;;;51.68;35.50;;;24.60;72.70;;;;;;1978938;71;21118;-85
2022/01/26 19:52:55;;;;;;;55.50;39.50;;;24.70;69.60;;;;;;2006450;71;21112;-83
2022/01/26 19:55:27;;;;;;;48.78;36.00;;;24.80;68.90;;;;;;2003990;71;21127;-83
2022/01/26 19:58:01;;;;;;;51.48;36.48;;;24.80;69.60;;;;;;2003916;71;21089;-84
2022/01/26 20:00:33;;;;;;;51.75;36.10;;;24.80;70.20;;;;;;1928466;73;21225;-84